sensor_id;sensor_type;location;lat;lon;timestamp;temperature;humidity
7360;DHT22;3720;48.274;7.796;2024-03-02T00:00:31;4.90;99.90
7360;DHT22;3720;48.274;7.796;2024-03-02T00:03:03;4.90;99.90
7360;DHT22;3720;48.274;7.796;2024-03-02T00:05:35;4.80;99.90
7360;DHT22;3720;48.274;7.796;2024-03-02T00:08:07;4.70;99.90
7360;DHT22;3720;48.274;7.796;2024-03-02T00:10:40;4.70;99.90
7360;DHT22;3720;48.274;7.796;2024-03-02T00:13:13;4.70;99.90
7360;DHT22;3720;48.274;7.796;2024-03-02T00:15:46;4.80;99.90
7360;DHT22;3720;48.274;7.796;2024-03-02T00:18:21;4.80;99.90
7360;DHT22;3720;48.274;7.796;2024-03-02T00:20:54;4.80;99.90
7360;DHT22;3720;48.274;7.796;2024-03-02T00:23:29;4.90;99.90
7360;DHT22;3720;48.274;7.796;2024-03-02T00:26:03;4.90;99.90
7360;DHT22;3720;48.274;7.796;2024-03-02T00:28:36;4.90;99.90
7360;DHT22;3720;48.274;7.796;2024-03-02T00:31:09;5.00;99.90
7360;DHT22;3720;48.274;7.796;2024-03-02T00:33:44;5.00;99.90
7360;DHT22;3720;48.274;7.796;2024-03-02T00:36:18;4.90;99.90
7360;DHT22;3720;48.274;7.796;2024-03-02T00:38:54;4.90;99.90
7360;DHT22;3720;48.274;7.796;2024-03-02T00:41:30;4.80;99.90
7360;DHT22;3720;48.274;7.796;2024-03-02T00:44:03;5.10;99.90
7360;DHT22;3720;48.274;7.796;2024-03-02T00:46:37;4.70;99.90
7360;DHT22;3720;48.274;7.796;2024-03-02T00:49:17;4.70;99.90
7360;DHT22;3720;48.274;7.796;2024-03-02T00:51:52;4.60;99.90
7360;DHT22;3720;48.274;7.796;2024-03-02T00:54:25;4.60;99.90
7360;DHT22;3720;48.274;7.796;2024-03-02T00:57:00;4.60;99.90
7360;DHT22;3720;48.274;7.796;2024-03-02T00:59:32;4.50;99.90
7360;DHT22;3720;48.274;7.796;2024-03-02T01:02:04;4.50;99.90
7360;DHT22;3720;48.274;7.796;2024-03-02T01:04:36;4.40;99.90
7360;DHT22;3720;48.274;7.796;2024-03-02T01:07:07;4.40;99.90
7360;DHT22;3720;48.274;7.796;2024-03-02T01:09:40;4.30;99.90
7360;DHT22;3720;48.274;7.796;2024-03-02T01:12:13;4.30;99.90
7360;DHT22;3720;48.274;7.796;2024-03-02T01:14:45;4.30;99.90
7360;DHT22;3720;48.274;7.796;2024-03-02T01:17:17;4.20;99.90
7360;DHT22;3720;48.274;7.796;2024-03-02T01:19:49;4.20;99.90
7360;DHT22;3720;48.274;7.796;2024-03-02T01:22:21;4.20;99.90
7360;DHT22;3720;48.274;7.796;2024-03-02T01:24:56;4.20;99.90
7360;DHT22;3720;48.274;7.796;2024-03-02T01:27:29;4.10;99.90
7360;DHT22;3720;48.274;7.796;2024-03-02T01:30:01;4.10;99.90
7360;DHT22;3720;48.274;7.796;2024-03-02T01:32:32;4.10;99.90
7360;DHT22;3720;48.274;7.796;2024-03-02T01:35:05;4.10;99.90
7360;DHT22;3720;48.274;7.796;2024-03-02T01:37:37;4.10;99.90
7360;DHT22;3720;48.274;7.796;2024-03-02T01:40:10;4.10;99.90
7360;DHT22;3720;48.274;7.796;2024-03-02T01:42:44;4.00;99.90
7360;DHT22;3720;48.274;7.796;2024-03-02T01:45:15;4.10;99.90
7360;DHT22;3720;48.274;7.796;2024-03-02T01:47:47;4.00;99.90
7360;DHT22;3720;48.274;7.796;2024-03-02T01:50:25;4.00;99.90
7360;DHT22;3720;48.274;7.796;2024-03-02T01:52:58;3.90;99.90
7360;DHT22;3720;48.274;7.796;2024-03-02T01:55:30;3.90;99.90
7360;DHT22;3720;48.274;7.796;2024-03-02T01:58:05;3.90;99.90
7360;DHT22;3720;48.274;7.796;2024-03-02T02:00:37;3.80;99.90
7360;DHT22;3720;48.274;7.796;2024-03-02T02:03:09;3.90;99.90
7360;DHT22;3720;48.274;7.796;2024-03-02T02:05:42;3.80;99.90
7360;DHT22;3720;48.274;7.796;2024-03-02T02:08:14;3.80;99.90
7360;DHT22;3720;48.274;7.796;2024-03-02T02:10:46;3.70;99.90
7360;DHT22;3720;48.274;7.796;2024-03-02T02:13:19;3.70;99.90
7360;DHT22;3720;48.274;7.796;2024-03-02T02:15:51;3.70;99.90
7360;DHT22;3720;48.274;7.796;2024-03-02T02:18:23;3.60;99.90
7360;DHT22;3720;48.274;7.796;2024-03-02T02:20:55;3.60;99.90
7360;DHT22;3720;48.274;7.796;2024-03-02T02:23:28;3.50;99.90
7360;DHT22;3720;48.274;7.796;2024-03-02T02:26:00;3.50;99.90
7360;DHT22;3720;48.274;7.796;2024-03-02T02:28:34;3.60;99.90
7360;DHT22;3720;48.274;7.796;2024-03-02T02:31:06;3.60;99.90
7360;DHT22;3720;48.274;7.796;2024-03-02T02:33:39;3.60;99.90
7360;DHT22;3720;48.274;7.796;2024-03-02T02:36:11;3.60;99.90
7360;DHT22;3720;48.274;7.796;2024-03-02T02:38:45;3.60;99.90
7360;DHT22;3720;48.274;7.796;2024-03-02T02:41:18;3.70;99.90
7360;DHT22;3720;48.274;7.796;2024-03-02T02:43:50;3.70;99.90
7360;DHT22;3720;48.274;7.796;2024-03-02T02:46:31;3.60;99.90
7360;DHT22;3720;48.274;7.796;2024-03-02T02:49:03;3.50;99.90
7360;DHT22;3720;48.274;7.796;2024-03-02T02:51:35;3.50;99.90
7360;DHT22;3720;48.274;7.796;2024-03-02T02:54:08;3.50;99.90
7360;DHT22;3720;48.274;7.796;2024-03-02T02:56:40;3.40;99.90
7360;DHT22;3720;48.274;7.796;2024-03-02T02:59:12;3.40;99.90
7360;DHT22;3720;48.274;7.796;2024-03-02T03:01:43;3.30;99.90
7360;DHT22;3720;48.274;7.796;2024-03-02T03:04:15;3.30;99.90
7360;DHT22;3720;48.274;7.796;2024-03-02T03:06:47;3.30;99.90
7360;DHT22;3720;48.274;7.796;2024-03-02T03:09:20;3.20;99.90
7360;DHT22;3720;48.274;7.796;2024-03-02T03:11:52;3.30;99.90
7360;DHT22;3720;48.274;7.796;2024-03-02T03:14:24;3.20;99.90
7360;DHT22;3720;48.274;7.796;2024-03-02T03:16:56;3.20;99.90
7360;DHT22;3720;48.274;7.796;2024-03-02T03:19:28;3.20;99.90
7360;DHT22;3720;48.274;7.796;2024-03-02T03:21:59;3.10;99.90
7360;DHT22;3720;48.274;7.796;2024-03-02T03:24:32;3.10;99.90
7360;DHT22;3720;48.274;7.796;2024-03-02T03:27:04;3.00;99.90
7360;DHT22;3720;48.274;7.796;2024-03-02T03:29:36;3.00;99.90
7360;DHT22;3720;48.274;7.796;2024-03-02T03:32:08;3.00;99.90
7360;DHT22;3720;48.274;7.796;2024-03-02T03:34:40;3.00;99.90
7360;DHT22;3720;48.274;7.796;2024-03-02T03:37:12;3.00;99.90
7360;DHT22;3720;48.274;7.796;2024-03-02T03:39:45;3.00;99.90
7360;DHT22;3720;48.274;7.796;2024-03-02T03:42:17;3.00;99.90
7360;DHT22;3720;48.274;7.796;2024-03-02T03:44:48;3.00;99.90
7360;DHT22;3720;48.274;7.796;2024-03-02T03:47:20;3.10;99.90
7360;DHT22;3720;48.274;7.796;2024-03-02T03:49:52;3.20;99.90
7360;DHT22;3720;48.274;7.796;2024-03-02T03:52:24;3.20;99.90
7360;DHT22;3720;48.274;7.796;2024-03-02T03:54:57;3.30;99.90
7360;DHT22;3720;48.274;7.796;2024-03-02T03:57:29;3.30;99.90
7360;DHT22;3720;48.274;7.796;2024-03-02T04:00:01;3.50;99.90
7360;DHT22;3720;48.274;7.796;2024-03-02T04:02:33;3.50;99.90
7360;DHT22;3720;48.274;7.796;2024-03-02T04:05:06;3.40;99.90
7360;DHT22;3720;48.274;7.796;2024-03-02T04:07:39;3.30;99.90
7360;DHT22;3720;48.274;7.796;2024-03-02T04:10:13;3.20;99.90
7360;DHT22;3720;48.274;7.796;2024-03-02T04:12:46;3.20;99.90
7360;DHT22;3720;48.274;7.796;2024-03-02T04:15:18;3.10;99.90
7360;DHT22;3720;48.274;7.796;2024-03-02T04:17:50;3.00;99.90
7360;DHT22;3720;48.274;7.796;2024-03-02T04:20:22;3.00;99.90
7360;DHT22;3720;48.274;7.796;2024-03-02T04:22:54;3.00;99.90
7360;DHT22;3720;48.274;7.796;2024-03-02T04:25:27;3.00;99.90
7360;DHT22;3720;48.274;7.796;2024-03-02T04:27:59;3.00;99.90
7360;DHT22;3720;48.274;7.796;2024-03-02T04:30:30;2.90;99.90
7360;DHT22;3720;48.274;7.796;2024-03-02T04:33:03;2.80;99.90
7360;DHT22;3720;48.274;7.796;2024-03-02T04:35:36;2.60;99.90
7360;DHT22;3720;48.274;7.796;2024-03-02T04:38:08;2.60;99.90
7360;DHT22;3720;48.274;7.796;2024-03-02T04:40:41;2.60;99.90
7360;DHT22;3720;48.274;7.796;2024-03-02T04:43:13;2.50;99.90
7360;DHT22;3720;48.274;7.796;2024-03-02T04:45:46;2.60;99.90
7360;DHT22;3720;48.274;7.796;2024-03-02T04:48:18;2.60;99.90
7360;DHT22;3720;48.274;7.796;2024-03-02T04:50:51;2.50;99.90
7360;DHT22;3720;48.274;7.796;2024-03-02T04:53:23;2.50;99.90
7360;DHT22;3720;48.274;7.796;2024-03-02T04:55:56;2.60;99.90
7360;DHT22;3720;48.274;7.796;2024-03-02T04:58:58;2.50;99.90
7360;DHT22;3720;48.274;7.796;2024-03-02T05:01:29;2.50;99.90
7360;DHT22;3720;48.274;7.796;2024-03-02T05:04:01;2.50;99.90
7360;DHT22;3720;48.274;7.796;2024-03-02T05:06:33;2.50;99.90
7360;DHT22;3720;48.274;7.796;2024-03-02T05:09:05;2.40;99.90
7360;DHT22;3720;48.274;7.796;2024-03-02T05:11:38;2.40;99.90
7360;DHT22;3720;48.274;7.796;2024-03-02T05:14:26;2.40;99.90
7360;DHT22;3720;48.274;7.796;2024-03-02T05:16:59;2.40;99.90
7360;DHT22;3720;48.274;7.796;2024-03-02T05:19:31;2.40;99.90
7360;DHT22;3720;48.274;7.796;2024-03-02T05:22:03;2.50;99.90
7360;DHT22;3720;48.274;7.796;2024-03-02T05:24:35;2.60;99.90
7360;DHT22;3720;48.274;7.796;2024-03-02T05:27:08;2.60;99.90
7360;DHT22;3720;48.274;7.796;2024-03-02T05:29:40;2.60;99.90
7360;DHT22;3720;48.274;7.796;2024-03-02T05:32:12;2.60;99.90
7360;DHT22;3720;48.274;7.796;2024-03-02T05:34:44;2.60;99.90
7360;DHT22;3720;48.274;7.796;2024-03-02T05:37:15;2.60;99.90
7360;DHT22;3720;48.274;7.796;2024-03-02T05:39:47;2.60;99.90
7360;DHT22;3720;48.274;7.796;2024-03-02T05:42:20;2.60;99.90
7360;DHT22;3720;48.274;7.796;2024-03-02T05:44:52;2.60;99.90
7360;DHT22;3720;48.274;7.796;2024-03-02T05:47:24;2.60;99.90
7360;DHT22;3720;48.274;7.796;2024-03-02T05:49:56;2.70;99.90
7360;DHT22;3720;48.274;7.796;2024-03-02T05:52:28;2.70;99.90
7360;DHT22;3720;48.274;7.796;2024-03-02T05:55:00;2.70;99.90
7360;DHT22;3720;48.274;7.796;2024-03-02T05:57:33;2.70;99.90
7360;DHT22;3720;48.274;7.796;2024-03-02T06:00:20;2.70;99.90
7360;DHT22;3720;48.274;7.796;2024-03-02T06:02:52;2.80;99.90
7360;DHT22;3720;48.274;7.796;2024-03-02T06:05:24;2.80;99.90
7360;DHT22;3720;48.274;7.796;2024-03-02T06:07:56;2.80;99.90
7360;DHT22;3720;48.274;7.796;2024-03-02T06:10:28;2.80;99.90
7360;DHT22;3720;48.274;7.796;2024-03-02T06:13:01;2.80;99.90
7360;DHT22;3720;48.274;7.796;2024-03-02T06:15:33;2.80;99.90
7360;DHT22;3720;48.274;7.796;2024-03-02T06:18:06;2.80;99.90
7360;DHT22;3720;48.274;7.796;2024-03-02T06:20:38;2.80;99.90
7360;DHT22;3720;48.274;7.796;2024-03-02T06:23:10;2.80;99.90
7360;DHT22;3720;48.274;7.796;2024-03-02T06:25:42;2.90;99.90
7360;DHT22;3720;48.274;7.796;2024-03-02T06:28:15;2.90;99.90
7360;DHT22;3720;48.274;7.796;2024-03-02T06:30:47;2.90;99.90
7360;DHT22;3720;48.274;7.796;2024-03-02T06:33:18;2.90;99.90
7360;DHT22;3720;48.274;7.796;2024-03-02T06:35:50;3.00;99.90
7360;DHT22;3720;48.274;7.796;2024-03-02T06:38:22;3.00;99.90
7360;DHT22;3720;48.274;7.796;2024-03-02T06:40:54;3.00;99.90
7360;DHT22;3720;48.274;7.796;2024-03-02T06:43:28;3.00;99.90
7360;DHT22;3720;48.274;7.796;2024-03-02T06:45:59;3.10;99.90
7360;DHT22;3720;48.274;7.796;2024-03-02T06:48:32;3.10;99.90
7360;DHT22;3720;48.274;7.796;2024-03-02T06:51:04;3.20;99.90
7360;DHT22;3720;48.274;7.796;2024-03-02T06:53:35;3.20;99.90
7360;DHT22;3720;48.274;7.796;2024-03-02T06:56:07;3.30;99.90
7360;DHT22;3720;48.274;7.796;2024-03-02T06:58:41;3.40;99.90
7360;DHT22;3720;48.274;7.796;2024-03-02T07:01:13;3.50;99.90
7360;DHT22;3720;48.274;7.796;2024-03-02T07:03:45;3.60;99.90
7360;DHT22;3720;48.274;7.796;2024-03-02T07:06:17;3.70;99.90
7360;DHT22;3720;48.274;7.796;2024-03-02T07:08:49;3.80;99.90
7360;DHT22;3720;48.274;7.796;2024-03-02T07:11:21;3.90;99.90
7360;DHT22;3720;48.274;7.796;2024-03-02T07:13:54;4.00;99.90
7360;DHT22;3720;48.274;7.796;2024-03-02T07:16:26;4.00;99.90
7360;DHT22;3720;48.274;7.796;2024-03-02T07:19:03;4.10;99.90
7360;DHT22;3720;48.274;7.796;2024-03-02T07:21:35;4.10;99.90
7360;DHT22;3720;48.274;7.796;2024-03-02T07:24:07;4.20;99.90
7360;DHT22;3720;48.274;7.796;2024-03-02T07:26:43;4.20;99.90
7360;DHT22;3720;48.274;7.796;2024-03-02T07:29:16;4.30;99.90
7360;DHT22;3720;48.274;7.796;2024-03-02T07:31:48;4.30;99.90
7360;DHT22;3720;48.274;7.796;2024-03-02T07:34:20;4.40;99.90
7360;DHT22;3720;48.274;7.796;2024-03-02T07:36:52;4.50;99.90
7360;DHT22;3720;48.274;7.796;2024-03-02T07:39:24;4.60;99.90
7360;DHT22;3720;48.274;7.796;2024-03-02T07:41:56;4.60;99.90
7360;DHT22;3720;48.274;7.796;2024-03-02T07:44:29;4.70;99.90
7360;DHT22;3720;48.274;7.796;2024-03-02T07:47:01;4.80;99.90
7360;DHT22;3720;48.274;7.796;2024-03-02T07:49:33;4.90;99.90
7360;DHT22;3720;48.274;7.796;2024-03-02T07:52:05;5.00;99.90
7360;DHT22;3720;48.274;7.796;2024-03-02T07:54:37;5.00;99.90
7360;DHT22;3720;48.274;7.796;2024-03-02T07:57:09;5.10;99.90
7360;DHT22;3720;48.274;7.796;2024-03-02T07:59:42;5.20;99.90
7360;DHT22;3720;48.274;7.796;2024-03-02T08:02:24;5.30;99.90
7360;DHT22;3720;48.274;7.796;2024-03-02T08:04:56;5.40;99.90
7360;DHT22;3720;48.274;7.796;2024-03-02T08:07:28;5.50;99.90
7360;DHT22;3720;48.274;7.796;2024-03-02T08:10:00;5.50;99.90
7360;DHT22;3720;48.274;7.796;2024-03-02T08:12:32;5.60;99.90
7360;DHT22;3720;48.274;7.796;2024-03-02T08:15:06;5.70;99.90
7360;DHT22;3720;48.274;7.796;2024-03-02T08:17:38;5.80;99.90
7360;DHT22;3720;48.274;7.796;2024-03-02T08:20:15;5.90;99.90
7360;DHT22;3720;48.274;7.796;2024-03-02T08:22:47;6.00;99.90
7360;DHT22;3720;48.274;7.796;2024-03-02T08:25:18;6.10;99.90
7360;DHT22;3720;48.274;7.796;2024-03-02T08:27:50;6.20;99.90
7360;DHT22;3720;48.274;7.796;2024-03-02T08:30:24;6.30;99.90
7360;DHT22;3720;48.274;7.796;2024-03-02T08:32:55;6.40;99.90
7360;DHT22;3720;48.274;7.796;2024-03-02T08:35:27;6.60;99.90
7360;DHT22;3720;48.274;7.796;2024-03-02T08:37:59;6.70;99.90
7360;DHT22;3720;48.274;7.796;2024-03-02T08:40:31;6.80;99.90
7360;DHT22;3720;48.274;7.796;2024-03-02T08:43:03;6.90;99.90
7360;DHT22;3720;48.274;7.796;2024-03-02T08:45:37;7.10;99.90
7360;DHT22;3720;48.274;7.796;2024-03-02T08:48:10;7.20;99.90
7360;DHT22;3720;48.274;7.796;2024-03-02T08:50:41;7.30;99.90
7360;DHT22;3720;48.274;7.796;2024-03-02T08:53:13;7.40;99.90
7360;DHT22;3720;48.274;7.796;2024-03-02T08:55:48;7.60;99.90
7360;DHT22;3720;48.274;7.796;2024-03-02T08:58:20;7.70;99.90
7360;DHT22;3720;48.274;7.796;2024-03-02T09:00:54;7.80;99.90
7360;DHT22;3720;48.274;7.796;2024-03-02T09:03:25;7.90;99.90
7360;DHT22;3720;48.274;7.796;2024-03-02T09:05:57;8.10;99.90
7360;DHT22;3720;48.274;7.796;2024-03-02T09:08:29;8.20;99.90
7360;DHT22;3720;48.274;7.796;2024-03-02T09:11:01;8.40;99.90
7360;DHT22;3720;48.274;7.796;2024-03-02T09:13:33;8.50;99.90
7360;DHT22;3720;48.274;7.796;2024-03-02T09:16:06;8.60;99.90
7360;DHT22;3720;48.274;7.796;2024-03-02T09:18:41;8.80;99.90
7360;DHT22;3720;48.274;7.796;2024-03-02T09:21:13;8.90;99.90
7360;DHT22;3720;48.274;7.796;2024-03-02T09:23:45;9.10;99.90
7360;DHT22;3720;48.274;7.796;2024-03-02T09:26:18;9.20;99.90
7360;DHT22;3720;48.274;7.796;2024-03-02T09:28:51;9.40;99.90
7360;DHT22;3720;48.274;7.796;2024-03-02T09:31:24;9.60;99.90
7360;DHT22;3720;48.274;7.796;2024-03-02T09:33:56;9.80;99.90
7360;DHT22;3720;48.274;7.796;2024-03-02T09:36:28;10.00;99.90
7360;DHT22;3720;48.274;7.796;2024-03-02T09:39:00;10.20;99.90
7360;DHT22;3720;48.274;7.796;2024-03-02T09:41:34;10.50;99.90
7360;DHT22;3720;48.274;7.796;2024-03-02T09:44:06;10.70;99.90
7360;DHT22;3720;48.274;7.796;2024-03-02T09:46:40;10.90;99.90
7360;DHT22;3720;48.274;7.796;2024-03-02T09:49:14;11.10;99.90
7360;DHT22;3720;48.274;7.796;2024-03-02T09:51:47;11.20;99.90
7360;DHT22;3720;48.274;7.796;2024-03-02T09:54:19;11.30;99.90
7360;DHT22;3720;48.274;7.796;2024-03-02T09:56:51;11.50;99.90
7360;DHT22;3720;48.274;7.796;2024-03-02T09:59:23;11.80;99.90
7360;DHT22;3720;48.274;7.796;2024-03-02T10:02:00;12.10;99.90
7360;DHT22;3720;48.274;7.796;2024-03-02T10:04:33;12.50;99.90
7360;DHT22;3720;48.274;7.796;2024-03-02T10:07:13;12.70;99.90
7360;DHT22;3720;48.274;7.796;2024-03-02T10:09:46;13.00;99.90
7360;DHT22;3720;48.274;7.796;2024-03-02T10:12:18;13.20;99.90
7360;DHT22;3720;48.274;7.796;2024-03-02T10:15:03;13.30;99.90
7360;DHT22;3720;48.274;7.796;2024-03-02T10:17:39;13.50;99.90
7360;DHT22;3720;48.274;7.796;2024-03-02T10:20:24;13.80;99.90
7360;DHT22;3720;48.274;7.796;2024-03-02T10:22:56;14.10;99.90
7360;DHT22;3720;48.274;7.796;2024-03-02T10:25:41;14.40;99.90
7360;DHT22;3720;48.274;7.796;2024-03-02T10:28:12;14.70;99.90
7360;DHT22;3720;48.274;7.796;2024-03-02T10:30:47;14.90;99.90
7360;DHT22;3720;48.274;7.796;2024-03-02T10:33:21;15.10;99.90
7360;DHT22;3720;48.274;7.796;2024-03-02T10:35:53;15.30;99.90
7360;DHT22;3720;48.274;7.796;2024-03-02T10:38:26;15.50;99.90
7360;DHT22;3720;48.274;7.796;2024-03-02T10:40:58;15.70;99.90
7360;DHT22;3720;48.274;7.796;2024-03-02T10:43:31;16.00;99.90
7360;DHT22;3720;48.274;7.796;2024-03-02T10:46:04;16.20;99.90
7360;DHT22;3720;48.274;7.796;2024-03-02T10:48:39;16.50;99.90
7360;DHT22;3720;48.274;7.796;2024-03-02T10:51:13;16.70;99.90
7360;DHT22;3720;48.274;7.796;2024-03-02T10:53:45;17.10;99.90
7360;DHT22;3720;48.274;7.796;2024-03-02T10:56:28;17.40;99.90
7360;DHT22;3720;48.274;7.796;2024-03-02T10:59:03;17.60;99.90
7360;DHT22;3720;48.274;7.796;2024-03-02T11:01:36;17.80;99.90
7360;DHT22;3720;48.274;7.796;2024-03-02T11:04:13;17.90;99.90
7360;DHT22;3720;48.274;7.796;2024-03-02T11:06:48;18.00;99.90
7360;DHT22;3720;48.274;7.796;2024-03-02T11:09:21;18.10;99.90
7360;DHT22;3720;48.274;7.796;2024-03-02T11:11:59;18.40;99.90
7360;DHT22;3720;48.274;7.796;2024-03-02T11:14:32;18.60;99.90
7360;DHT22;3720;48.274;7.796;2024-03-02T11:17:05;18.70;99.90
7360;DHT22;3720;48.274;7.796;2024-03-02T11:19:38;19.00;99.90
7360;DHT22;3720;48.274;7.796;2024-03-02T11:22:11;19.00;99.90
7360;DHT22;3720;48.274;7.796;2024-03-02T11:24:48;19.20;99.90
7360;DHT22;3720;48.274;7.796;2024-03-02T11:30:51;18.70;99.90
7360;DHT22;3720;48.274;7.796;2024-03-02T11:33:24;18.30;99.90
7360;DHT22;3720;48.274;7.796;2024-03-02T11:36:01;18.10;99.90
7360;DHT22;3720;48.274;7.796;2024-03-02T11:38:35;18.10;99.90
7360;DHT22;3720;48.274;7.796;2024-03-02T11:41:07;18.30;99.90
7360;DHT22;3720;48.274;7.796;2024-03-02T11:43:40;18.40;99.90
7360;DHT22;3720;48.274;7.796;2024-03-02T11:46:16;18.30;99.90
7360;DHT22;3720;48.274;7.796;2024-03-02T11:48:47;18.30;99.90
7360;DHT22;3720;48.274;7.796;2024-03-02T11:51:19;18.40;99.90
7360;DHT22;3720;48.274;7.796;2024-03-02T11:53:51;18.40;99.90
7360;DHT22;3720;48.274;7.796;2024-03-02T11:56:26;18.00;99.90
7360;DHT22;3720;48.274;7.796;2024-03-02T11:58:58;17.90;99.90
7360;DHT22;3720;48.274;7.796;2024-03-02T12:01:34;17.70;99.90
7360;DHT22;3720;48.274;7.796;2024-03-02T12:04:07;17.60;99.90
7360;DHT22;3720;48.274;7.796;2024-03-02T12:06:38;17.70;99.90
7360;DHT22;3720;48.274;7.796;2024-03-02T12:09:10;17.70;99.90
7360;DHT22;3720;48.274;7.796;2024-03-02T12:11:43;17.50;99.90
7360;DHT22;3720;48.274;7.796;2024-03-02T12:14:14;17.20;99.90
7360;DHT22;3720;48.274;7.796;2024-03-02T12:16:48;17.00;99.90
7360;DHT22;3720;48.274;7.796;2024-03-02T12:19:19;17.10;99.90
7360;DHT22;3720;48.274;7.796;2024-03-02T12:21:51;17.20;99.90
7360;DHT22;3720;48.274;7.796;2024-03-02T12:24:27;17.10;99.90
7360;DHT22;3720;48.274;7.796;2024-03-02T12:26:59;17.10;99.90
7360;DHT22;3720;48.274;7.796;2024-03-02T12:29:31;17.10;99.90
7360;DHT22;3720;48.274;7.796;2024-03-02T12:32:05;17.10;99.90
7360;DHT22;3720;48.274;7.796;2024-03-02T12:34:38;17.10;99.90
7360;DHT22;3720;48.274;7.796;2024-03-02T12:37:12;17.10;99.90
7360;DHT22;3720;48.274;7.796;2024-03-02T12:39:45;17.20;99.90
7360;DHT22;3720;48.274;7.796;2024-03-02T12:42:17;17.40;99.90
7360;DHT22;3720;48.274;7.796;2024-03-02T12:44:49;17.50;99.90
7360;DHT22;3720;48.274;7.796;2024-03-02T12:47:26;17.80;99.90
7360;DHT22;3720;48.274;7.796;2024-03-02T12:49:58;18.10;99.90
7360;DHT22;3720;48.274;7.796;2024-03-02T12:52:30;18.30;99.70
7360;DHT22;3720;48.274;7.796;2024-03-02T12:55:04;18.60;99.90
7360;DHT22;3720;48.274;7.796;2024-03-02T12:57:37;18.60;97.20
7360;DHT22;3720;48.274;7.796;2024-03-02T13:00:11;18.70;97.80
7360;DHT22;3720;48.274;7.796;2024-03-02T13:02:46;18.80;99.90
7360;DHT22;3720;48.274;7.796;2024-03-02T13:05:18;18.90;98.70
7360;DHT22;3720;48.274;7.796;2024-03-02T13:07:50;18.90;95.80
7360;DHT22;3720;48.274;7.796;2024-03-02T13:10:22;19.00;98.40
7360;DHT22;3720;48.274;7.796;2024-03-02T13:12:55;19.10;96.30
7360;DHT22;3720;48.274;7.796;2024-03-02T13:15:27;19.30;94.50
7360;DHT22;3720;48.274;7.796;2024-03-02T13:18:01;19.70;95.70
7360;DHT22;3720;48.274;7.796;2024-03-02T13:20:33;20.10;94.40
7360;DHT22;3720;48.274;7.796;2024-03-02T13:23:05;20.40;91.50
7360;DHT22;3720;48.274;7.796;2024-03-02T13:25:37;20.70;91.70
7360;DHT22;3720;48.274;7.796;2024-03-02T13:28:09;20.80;90.90
7360;DHT22;3720;48.274;7.796;2024-03-02T13:30:41;20.50;89.20
7360;DHT22;3720;48.274;7.796;2024-03-02T13:33:14;20.20;91.20
7360;DHT22;3720;48.274;7.796;2024-03-02T13:35:46;19.80;92.10
7360;DHT22;3720;48.274;7.796;2024-03-02T13:38:19;19.80;91.60
7360;DHT22;3720;48.274;7.796;2024-03-02T13:40:51;19.90;91.60
7360;DHT22;3720;48.274;7.796;2024-03-02T13:43:23;19.70;89.50
7360;DHT22;3720;48.274;7.796;2024-03-02T13:45:55;19.70;90.30
7360;DHT22;3720;48.274;7.796;2024-03-02T13:48:28;19.60;91.70
7360;DHT22;3720;48.274;7.796;2024-03-02T13:51:01;19.70;89.40
7360;DHT22;3720;48.274;7.796;2024-03-02T13:53:33;19.80;92.00
7360;DHT22;3720;48.274;7.796;2024-03-02T13:56:06;19.60;90.80
7360;DHT22;3720;48.274;7.796;2024-03-02T13:58:38;19.40;90.30
7360;DHT22;3720;48.274;7.796;2024-03-02T14:01:10;19.20;91.40
7360;DHT22;3720;48.274;7.796;2024-03-02T14:03:43;19.10;91.00
7360;DHT22;3720;48.274;7.796;2024-03-02T14:06:16;18.80;91.30
7360;DHT22;3720;48.274;7.796;2024-03-02T14:08:48;18.60;92.50
7360;DHT22;3720;48.274;7.796;2024-03-02T14:11:20;18.40;91.50
7360;DHT22;3720;48.274;7.796;2024-03-02T14:13:52;18.20;91.80
7360;DHT22;3720;48.274;7.796;2024-03-02T14:16:25;18.10;91.80
7360;DHT22;3720;48.274;7.796;2024-03-02T14:18:58;18.00;93.20
7360;DHT22;3720;48.274;7.796;2024-03-02T14:21:30;17.80;93.60
7360;DHT22;3720;48.274;7.796;2024-03-02T14:24:03;17.80;92.80
7360;DHT22;3720;48.274;7.796;2024-03-02T14:26:35;17.70;92.40
7360;DHT22;3720;48.274;7.796;2024-03-02T14:29:08;17.60;94.10
7360;DHT22;3720;48.274;7.796;2024-03-02T14:31:40;17.50;95.10
7360;DHT22;3720;48.274;7.796;2024-03-02T14:34:13;17.50;98.10
7360;DHT22;3720;48.274;7.796;2024-03-02T14:36:45;17.40;95.80
7360;DHT22;3720;48.274;7.796;2024-03-02T14:39:17;17.40;95.80
7360;DHT22;3720;48.274;7.796;2024-03-02T14:41:50;17.30;95.40
7360;DHT22;3720;48.274;7.796;2024-03-02T14:44:22;17.40;95.50
7360;DHT22;3720;48.274;7.796;2024-03-02T14:46:54;17.40;95.80
7360;DHT22;3720;48.274;7.796;2024-03-02T14:49:27;17.30;95.90
7360;DHT22;3720;48.274;7.796;2024-03-02T14:51:59;17.20;96.40
7360;DHT22;3720;48.274;7.796;2024-03-02T14:54:31;17.20;96.10
7360;DHT22;3720;48.274;7.796;2024-03-02T14:57:04;17.20;97.20
7360;DHT22;3720;48.274;7.796;2024-03-02T14:59:36;17.20;98.00
7360;DHT22;3720;48.274;7.796;2024-03-02T15:02:08;17.10;98.40
7360;DHT22;3720;48.274;7.796;2024-03-02T15:04:41;17.10;99.30
7360;DHT22;3720;48.274;7.796;2024-03-02T15:07:15;17.00;99.00
7360;DHT22;3720;48.274;7.796;2024-03-02T15:09:47;17.00;97.80
7360;DHT22;3720;48.274;7.796;2024-03-02T15:12:21;17.00;97.20
7360;DHT22;3720;48.274;7.796;2024-03-02T15:14:54;17.00;96.40
7360;DHT22;3720;48.274;7.796;2024-03-02T15:17:26;17.00;97.20
7360;DHT22;3720;48.274;7.796;2024-03-02T15:20:01;17.00;97.80
7360;DHT22;3720;48.274;7.796;2024-03-02T15:22:35;16.90;97.70
7360;DHT22;3720;48.274;7.796;2024-03-02T15:25:07;16.90;97.20
7360;DHT22;3720;48.274;7.796;2024-03-02T15:27:40;16.90;97.00
7360;DHT22;3720;48.274;7.796;2024-03-02T15:30:13;16.90;96.90
7360;DHT22;3720;48.274;7.796;2024-03-02T15:32:45;16.90;97.20
7360;DHT22;3720;48.274;7.796;2024-03-02T15:35:19;16.80;97.40
7360;DHT22;3720;48.274;7.796;2024-03-02T15:37:52;16.90;97.50
7360;DHT22;3720;48.274;7.796;2024-03-02T15:40:25;16.80;97.60
7360;DHT22;3720;48.274;7.796;2024-03-02T15:42:59;16.80;97.40
7360;DHT22;3720;48.274;7.796;2024-03-02T15:45:31;16.90;97.20
7360;DHT22;3720;48.274;7.796;2024-03-02T15:48:05;16.90;97.50
7360;DHT22;3720;48.274;7.796;2024-03-02T15:50:39;16.90;97.80
7360;DHT22;3720;48.274;7.796;2024-03-02T15:53:11;17.00;98.00
7360;DHT22;3720;48.274;7.796;2024-03-02T15:55:44;17.00;98.70
7360;DHT22;3720;48.274;7.796;2024-03-02T15:58:16;17.10;99.30
7360;DHT22;3720;48.274;7.796;2024-03-02T16:00:48;17.20;99.40
7360;DHT22;3720;48.274;7.796;2024-03-02T16:03:20;17.30;99.10
7360;DHT22;3720;48.274;7.796;2024-03-02T16:05:53;17.40;98.20
7360;DHT22;3720;48.274;7.796;2024-03-02T16:08:25;17.50;98.70
7360;DHT22;3720;48.274;7.796;2024-03-02T16:10:57;17.50;98.40
7360;DHT22;3720;48.274;7.796;2024-03-02T16:13:29;17.60;98.50
7360;DHT22;3720;48.274;7.796;2024-03-02T16:16:02;17.60;98.50
7360;DHT22;3720;48.274;7.796;2024-03-02T16:18:34;17.60;98.60
7360;DHT22;3720;48.274;7.796;2024-03-02T16:21:08;17.60;99.20
7360;DHT22;3720;48.274;7.796;2024-03-02T16:23:40;17.50;99.30
7360;DHT22;3720;48.274;7.796;2024-03-02T16:26:12;17.40;98.90
7360;DHT22;3720;48.274;7.796;2024-03-02T16:28:44;17.30;98.90
7360;DHT22;3720;48.274;7.796;2024-03-02T16:31:16;17.30;98.40
7360;DHT22;3720;48.274;7.796;2024-03-02T16:33:48;17.20;98.20
7360;DHT22;3720;48.274;7.796;2024-03-02T16:36:21;17.10;98.60
7360;DHT22;3720;48.274;7.796;2024-03-02T16:38:53;17.00;99.00
7360;DHT22;3720;48.274;7.796;2024-03-02T16:41:25;16.90;99.30
7360;DHT22;3720;48.274;7.796;2024-03-02T16:44:00;16.80;99.90
7360;DHT22;3720;48.274;7.796;2024-03-02T16:46:31;16.70;99.90
7360;DHT22;3720;48.274;7.796;2024-03-02T16:49:03;16.50;99.90
7360;DHT22;3720;48.274;7.796;2024-03-02T16:51:39;16.40;99.90